Time;durP1;ratioP1;P1;durP2;ratioP2;P2;SDS_P1;SDS_P2;PMS_P1;PMS_P2;Temp;Humidity;BMP_temperature;BMP_pressure;BME280_temperature;BME280_humidity;BME280_pressure;Samples;Min_cycle;Max_cycle;Signal;HPM_P1;HPM_P2
2023/01/03 00:01:08;;;;;;;;;;;26.00;99.90;;;;;;5013894;28;19964;-82
2023/01/03 00:03:34;;;;;;;;;;;26.00;99.90;;;;;;5014250;28;19910;-82
2023/01/03 00:06:01;;;;;;;;;;;25.90;99.90;;;;;;5013894;28;19913;-83
2023/01/03 00:08:28;;;;;;;;;;;25.80;99.90;;;;;;5013847;28;19913;-84
2023/01/03 00:10:54;;;;;;;;;;;25.60;99.90;;;;;;5013372;28;19916;-81
2023/01/03 00:13:21;;;;;;;;;;;25.50;99.90;;;;;;5013886;28;20368;-83
2023/01/03 00:15:47;;;;;;;;;;;25.60;99.90;;;;;;5013990;28;19967;-84
2023/01/03 00:18:14;;;;;;;;;;;25.70;99.90;;;;;;5013870;28;20007;-84
2023/01/03 00:20:41;;;;;;;;;;;25.90;99.90;;;;;;5013191;28;20388;-84
2023/01/03 00:23:08;;;;;;;;;;;25.90;99.90;;;;;;5013806;28;19914;-72
2023/01/03 00:25:35;;;;;;;;;;;25.90;99.90;;;;;;5013131;28;20000;-73
2023/01/03 00:28:01;;;;;;;;;;;25.90;99.90;;;;;;5013512;28;19959;-67
2023/01/03 00:30:28;;;;;;;;;;;25.90;99.90;;;;;;5013107;28;19957;-66
2023/01/03 00:32:54;;;;;;;;;;;26.00;99.90;;;;;;5013147;28;20328;-76
2023/01/03 00:35:21;;;;;;;;;;;26.10;99.90;;;;;;5012810;28;19979;-68
2023/01/03 00:37:48;;;;;;;;;;;26.30;99.90;;;;;;5013157;28;19913;-69
2023/01/03 00:40:14;;;;;;;;;;;26.20;99.90;;;;;;5012411;28;19940;-66
2023/01/03 00:45:25;;;;;;;;;;;26.40;99.90;;;;;;5012983;28;19932;-69
2023/01/03 00:47:52;;;;;;;;;;;26.40;99.90;;;;;;5013115;28;19947;-73
2023/01/03 00:50:22;;;;;;;;;;;26.30;99.90;;;;;;5012820;28;19964;-73
2023/01/03 00:52:48;;;;;;;;;;;26.30;99.90;;;;;;5011461;28;19918;-69
2023/01/03 00:55:15;;;;;;;;;;;26.30;99.90;;;;;;5012769;28;19991;-75
2023/01/03 00:57:42;;;;;;;;;;;26.40;99.90;;;;;;5012992;28;20328;-69
2023/01/03 01:00:08;;;;;;;;;;;26.60;99.90;;;;;;5013034;28;19914;-71
2023/01/03 01:02:35;;;;;;;;;;;26.90;99.90;;;;;;5012617;28;19956;-69
2023/01/03 01:05:02;;;;;;;;;;;27.40;99.90;;;;;;5012554;28;19913;-68
2023/01/03 01:07:28;;;;;;;;;;;28.00;99.90;;;;;;5012624;28;19925;-71
2023/01/03 01:09:55;;;;;;;;;;;28.60;99.90;;;;;;5012441;28;19910;-71
2023/01/03 01:12:21;;;;;;;;;;;29.10;99.90;;;;;;5012339;28;19921;-74
2023/01/03 01:14:49;;;;;;;;;;;29.50;99.90;;;;;;5012664;28;19948;-69
2023/01/03 01:17:15;;;;;;;;;;;29.60;99.90;;;;;;5012230;28;20280;-70
2023/01/03 01:19:43;;;;;;;;;;;29.60;99.90;;;;;;5012373;28;20360;-79
2023/01/03 01:22:10;;;;;;;;;;;29.60;99.90;;;;;;5012221;28;20020;-74
2023/01/03 01:24:37;;;;;;;;;;;29.80;99.90;;;;;;5012169;28;20351;-73
2023/01/03 01:27:04;;;;;;;;;;;29.90;99.90;;;;;;5012300;28;19910;-69
2023/01/03 01:29:31;;;;;;;;;;;29.90;99.90;;;;;;5011991;28;20060;-71
2023/01/03 01:31:57;;;;;;;;;;;29.90;99.90;;;;;;5012088;28;20020;-72
2023/01/03 01:34:24;;;;;;;;;;;29.90;99.90;;;;;;5012169;28;20324;-70
2023/01/03 01:36:51;;;;;;;;;;;30.20;99.90;;;;;;5012557;28;19945;-69
2023/01/03 01:39:19;;;;;;;;;;;30.00;99.90;;;;;;5012037;28;20296;-68
2023/01/03 01:44:40;;;;;;;;;;;30.40;99.90;;;;;;5012174;28;19964;-69
2023/01/03 01:47:20;;;;;;;;;;;30.20;99.90;;;;;;5011985;28;19909;-69
2023/01/03 01:49:48;;;;;;;;;;;30.20;99.90;;;;;;5012039;28;19914;-68
2023/01/03 01:52:16;;;;;;;;;;;30.20;99.90;;;;;;5011689;28;19921;-68
2023/01/03 01:54:43;;;;;;;;;;;29.80;99.90;;;;;;5011804;28;19910;-70
2023/01/03 01:57:14;;;;;;;;;;;29.60;99.90;;;;;;5010797;28;19913;-76
2023/01/03 01:59:41;;;;;;;;;;;29.10;99.90;;;;;;5012203;28;19924;-69
2023/01/03 02:02:08;;;;;;;;;;;28.40;99.90;;;;;;5011922;28;19910;-78
2023/01/03 02:04:37;;;;;;;;;;;28.00;99.90;;;;;;5012146;28;19917;-68
2023/01/03 02:07:04;;;;;;;;;;;27.60;99.90;;;;;;5011769;28;19914;-69
2023/01/03 02:09:33;;;;;;;;;;;27.50;99.90;;;;;;5011674;28;19920;-73
2023/01/03 02:15:04;;;;;;;;;;;27.60;99.90;;;;;;5012308;28;19916;-68
2023/01/03 02:17:39;;;;;;;;;;;27.60;99.90;;;;;;5011523;28;19972;-72
2023/01/03 02:20:10;;;;;;;;;;;27.50;99.90;;;;;;5011875;28;19917;-72
2023/01/03 02:22:54;;;;;;;;;;;27.30;99.90;;;;;;5011717;28;19949;-75
2023/01/03 02:25:27;;;;;;;;;;;27.20;99.90;;;;;;5011859;28;19913;-78
2023/01/03 02:28:03;;;;;;;;;;;27.20;99.90;;;;;;5012026;28;19979;-76
2023/01/03 02:30:35;;;;;;;;;;;27.30;99.90;;;;;;5011556;28;19945;-68
2023/01/03 02:33:10;;;;;;;;;;;27.30;99.90;;;;;;5011633;28;19918;-69
2023/01/03 02:35:43;;;;;;;;;;;27.30;99.90;;;;;;5010137;28;19921;-69
2023/01/03 02:38:26;;;;;;;;;;;27.20;99.90;;;;;;5011606;28;19909;-69
2023/01/03 02:41:15;;;;;;;;;;;27.00;99.90;;;;;;5011059;28;20307;-72
2023/01/03 02:43:48;;;;;;;;;;;27.10;99.90;;;;;;5011621;28;19967;-69
2023/01/03 02:46:35;;;;;;;;;;;27.00;99.90;;;;;;5011750;28;19913;-78
2023/01/03 02:49:02;;;;;;;;;;;27.00;99.90;;;;;;5004306;28;19909;-71
2023/01/03 02:51:32;;;;;;;;;;;27.10;99.90;;;;;;5010978;28;20394;-80
2023/01/03 02:53:59;;;;;;;;;;;27.20;99.90;;;;;;5011395;28;19913;-70
2023/01/03 02:56:33;;;;;;;;;;;27.10;99.90;;;;;;5011484;28;19914;-69
2023/01/03 02:59:03;;;;;;;;;;;26.80;99.90;;;;;;5011668;28;20488;-68
2023/01/03 03:01:30;;;;;;;;;;;26.80;99.90;;;;;;5011013;28;20016;-71
2023/01/03 03:03:58;;;;;;;;;;;26.80;99.90;;;;;;5015029;28;19917;-69
2023/01/03 03:06:42;;;;;;;;;;;26.70;99.90;;;;;;5014733;28;19913;-67
2023/01/03 03:09:10;;;;;;;;;;;26.70;99.90;;;;;;5014639;28;20308;-67
2023/01/03 03:14:34;;;;;;;;;;;26.70;99.90;;;;;;5014953;28;19916;-70
2023/01/03 03:17:03;;;;;;;;;;;26.80;99.90;;;;;;5014496;28;19949;-68
2023/01/03 03:25:17;;;;;;;;;;;26.60;99.90;;;;;;5014411;28;19959;-74
2023/01/03 03:30:34;;;;;;;;;;;26.70;99.90;;;;;;5014602;28;19968;-73
2023/01/03 03:33:04;;;;;;;;;;;26.80;99.90;;;;;;5014475;28;19980;-70
2023/01/03 03:35:51;;;;;;;;;;;26.80;99.90;;;;;;5013691;28;19929;-67
2023/01/03 03:38:22;;;;;;;;;;;26.90;99.90;;;;;;5006702;28;19914;-68
2023/01/03 03:46:37;;;;;;;;;;;26.80;99.90;;;;;;5014623;28;19922;-73
2023/01/03 03:51:56;;;;;;;;;;;26.70;99.90;;;;;;5013952;28;19924;-70
2023/01/03 03:54:23;;;;;;;;;;;26.70;99.90;;;;;;5013762;28;19909;-68
2023/01/03 03:56:54;;;;;;;;;;;26.60;99.90;;;;;;5012523;28;19944;-69
2023/01/03 03:59:23;;;;;;;;;;;26.40;99.90;;;;;;5013763;28;19920;-70
2023/01/03 04:01:50;;;;;;;;;;;26.50;99.90;;;;;;5012119;28;20314;-69
2023/01/03 04:04:26;;;;;;;;;;;26.50;99.90;;;;;;5013525;28;20008;-69
2023/01/03 04:06:53;;;;;;;;;;;26.50;99.90;;;;;;5013828;28;19965;-69
2023/01/03 04:09:19;;;;;;;;;;;26.50;99.90;;;;;;5013339;28;20004;-72
2023/01/03 04:11:46;;;;;;;;;;;26.70;99.90;;;;;;5013507;28;20276;-74
2023/01/03 04:14:13;;;;;;;;;;;26.60;99.90;;;;;;5012362;28;19909;-68
2023/01/03 04:16:42;;;;;;;;;;;26.50;99.90;;;;;;5013548;28;19914;-68
2023/01/03 04:19:09;;;;;;;;;;;26.50;99.90;;;;;;5013477;28;19909;-68
2023/01/03 04:21:36;;;;;;;;;;;26.50;99.90;;;;;;5012836;28;20332;-73
2023/01/03 04:24:03;;;;;;;;;;;26.50;99.90;;;;;;5013248;28;19956;-68
2023/01/03 04:26:30;;;;;;;;;;;26.50;99.90;;;;;;5013215;28;19916;-68
2023/01/03 04:28:56;;;;;;;;;;;26.50;99.90;;;;;;5013307;28;20011;-68
2023/01/03 04:31:23;;;;;;;;;;;26.50;99.90;;;;;;5012883;28;19980;-70
2023/01/03 04:33:52;;;;;;;;;;;26.40;99.90;;;;;;5013020;28;19944;-69
2023/01/03 04:36:19;;;;;;;;;;;26.40;99.90;;;;;;5013359;28;19953;-67
2023/01/03 04:38:46;;;;;;;;;;;26.20;99.90;;;;;;5013078;28;19917;-74
2023/01/03 04:41:13;;;;;;;;;;;26.10;99.90;;;;;;5012529;28;19914;-68
2023/01/03 04:46:24;;;;;;;;;;;25.90;99.90;;;;;;5013402;28;20291;-70
2023/01/03 04:48:51;;;;;;;;;;;25.80;99.90;;;;;;5013188;28;19928;-77
2023/01/03 04:51:17;;;;;;;;;;;25.80;99.90;;;;;;5012455;28;19962;-68
2023/01/03 04:53:44;;;;;;;;;;;25.80;99.90;;;;;;5012795;28;20228;-68
2023/01/03 04:56:11;;;;;;;;;;;25.80;99.90;;;;;;5013094;28;19932;-69
2023/01/03 04:58:37;;;;;;;;;;;25.90;99.90;;;;;;5013104;28;19914;-69
2023/01/03 05:01:06;;;;;;;;;;;25.90;99.90;;;;;;5012507;28;19913;-77
2023/01/03 05:03:33;;;;;;;;;;;25.90;99.90;;;;;;5012605;28;20387;-75
2023/01/03 05:06:01;;;;;;;;;;;26.00;99.90;;;;;;5012916;28;19920;-70
2023/01/03 05:08:27;;;;;;;;;;;26.00;99.90;;;;;;5012759;28;19913;-83
2023/01/03 05:10:54;;;;;;;;;;;26.10;99.90;;;;;;5012681;28;19939;-78
2023/01/03 05:13:21;;;;;;;;;;;26.10;99.90;;;;;;5012689;28;19928;-80
2023/01/03 05:15:47;;;;;;;;;;;26.00;99.90;;;;;;5012934;28;20002;-71
2023/01/03 05:18:14;;;;;;;;;;;26.00;99.90;;;;;;5012682;28;19913;-72
2023/01/03 05:26:14;;;;;;;;;;;25.70;99.90;;;;;;5011943;28;20001;-71
2023/01/03 05:28:42;;;;;;;;;;;25.80;99.90;;;;;;5012436;28;19991;-71
2023/01/03 05:31:08;;;;;;;;;;;25.90;99.90;;;;;;5012457;28;19914;-69
2023/01/03 05:33:37;;;;;;;;;;;25.90;99.90;;;;;;5012317;28;20015;-79
2023/01/03 05:36:05;;;;;;;;;;;25.80;99.90;;;;;;5012351;28;19925;-80
2023/01/03 05:38:32;;;;;;;;;;;25.80;99.90;;;;;;5013204;28;19954;-81
2023/01/03 05:40:58;;;;;;;;;;;25.80;99.90;;;;;;5012893;28;19955;-72
2023/01/03 05:43:25;;;;;;;;;;;25.70;99.90;;;;;;5012260;28;19991;-71
2023/01/03 05:45:52;;;;;;;;;;;25.60;99.90;;;;;;5011115;28;19914;-77
2023/01/03 05:48:19;;;;;;;;;;;25.50;99.90;;;;;;5012381;28;19972;-73
2023/01/03 05:50:47;;;;;;;;;;;25.30;99.90;;;;;;5010933;28;19909;-72
2023/01/03 05:53:14;;;;;;;;;;;25.20;99.90;;;;;;5010684;28;20617;-78
2023/01/03 05:55:40;;;;;;;;;;;25.10;99.90;;;;;;5011035;28;20374;-79
2023/01/03 05:58:07;;;;;;;;;;;25.00;99.90;;;;;;5010536;28;19920;-69
2023/01/03 06:00:34;;;;;;;;;;;25.00;99.90;;;;;;5008150;28;19914;-76
2023/01/03 06:03:00;;;;;;;;;;;24.90;99.90;;;;;;4990706;28;19971;-80
2023/01/03 06:05:27;;;;;;;;;;;24.90;99.90;;;;;;4990859;28;19914;-80
2023/01/03 06:07:54;;;;;;;;;;;24.80;99.90;;;;;;4990685;28;19910;-68
2023/01/03 06:10:21;;;;;;;;;;;24.80;99.90;;;;;;4990268;28;19921;-71
2023/01/03 06:12:47;;;;;;;;;;;24.80;99.90;;;;;;4990327;28;20430;-71
2023/01/03 06:15:14;;;;;;;;;;;24.70;99.90;;;;;;4990030;28;19917;-68
2023/01/03 06:18:01;;;;;;;;;;;24.70;99.90;;;;;;4990490;28;19953;-75
2023/01/03 06:20:27;;;;;;;;;;;24.70;99.90;;;;;;4990150;28;19925;-69
2023/01/03 06:22:54;;;;;;;;;;;24.60;99.90;;;;;;4990365;28;19910;-80
2023/01/03 06:25:21;;;;;;;;;;;24.60;99.90;;;;;;4990259;28;20008;-70
2023/01/03 06:27:48;;;;;;;;;;;24.60;99.90;;;;;;4992929;28;19909;-68
2023/01/03 06:30:15;;;;;;;;;;;24.50;99.90;;;;;;5007888;28;19961;-74
2023/01/03 06:32:42;;;;;;;;;;;24.50;99.90;;;;;;5009975;28;20340;-68
2023/01/03 06:35:11;;;;;;;;;;;24.60;99.90;;;;;;5009710;28;19928;-77
2023/01/03 06:37:38;;;;;;;;;;;24.60;99.90;;;;;;5011630;28;19910;-75
2023/01/03 06:40:05;;;;;;;;;;;24.60;99.90;;;;;;5013790;28;19909;-71
2023/01/03 06:42:41;;;;;;;;;;;24.60;99.90;;;;;;5013310;28;20272;-72
2023/01/03 06:53:24;;;;;;;;;;;24.50;99.90;;;;;;5012777;28;20280;-73
2023/01/03 06:55:51;;;;;;;;;;;24.50;99.90;;;;;;5013517;28;19932;-67
2023/01/03 06:58:17;;;;;;;;;;;24.50;99.90;;;;;;5013245;28;19910;-74
2023/01/03 07:00:45;;;;;;;;;;;24.40;99.90;;;;;;5012867;28;19917;-77
2023/01/03 07:03:15;;;;;;;;;;;24.50;99.90;;;;;;5012516;28;20210;-70
2023/01/03 07:05:42;;;;;;;;;;;24.60;99.90;;;;;;5012911;28;19917;-72
2023/01/03 07:08:09;;;;;;;;;;;24.60;99.90;;;;;;5012872;28;19910;-67
2023/01/03 07:10:35;;;;;;;;;;;24.60;99.90;;;;;;5012901;28;19913;-70
2023/01/03 07:15:47;;;;;;;;;;;24.70;99.90;;;;;;5013059;28;19964;-69
2023/01/03 07:18:13;;;;;;;;;;;24.70;99.90;;;;;;5012948;28;19988;-68
2023/01/03 07:20:41;;;;;;;;;;;24.70;99.90;;;;;;5012914;28;20454;-69
2023/01/03 07:23:40;;;;;;;;;;;24.60;99.90;;;;;;5015819;28;19920;-80
2023/01/03 07:26:05;;;;;;;;;;;24.50;99.90;;;;;;5016000;28;19960;-78
2023/01/03 07:28:32;;;;;;;;;;;24.50;99.90;;;;;;5013878;28;20012;-68
2023/01/03 07:31:00;;;;;;;;;;;24.40;99.90;;;;;;5014627;28;20364;-72
2023/01/03 07:33:26;;;;;;;;;;;24.40;99.90;;;;;;5013702;28;19921;-72
2023/01/03 07:35:59;;;;;;;;;;;24.30;99.90;;;;;;5013016;28;20380;-70
2023/01/03 07:38:26;;;;;;;;;;;24.20;99.90;;;;;;5013080;28;20335;-71
2023/01/03 07:40:55;;;;;;;;;;;24.20;99.90;;;;;;5012439;28;19937;-68
2023/01/03 07:43:37;;;;;;;;;;;24.10;99.90;;;;;;5012283;28;19914;-69
2023/01/03 07:46:24;;;;;;;;;;;24.10;99.90;;;;;;5011709;28;19909;-69
2023/01/03 07:48:51;;;;;;;;;;;24.20;99.90;;;;;;5011911;28;19913;-74
2023/01/03 07:51:19;;;;;;;;;;;24.00;99.90;;;;;;5011785;28;19979;-74
2023/01/03 07:53:48;;;;;;;;;;;24.00;99.90;;;;;;5012535;28;20380;-78
2023/01/03 07:56:18;;;;;;;;;;;24.00;99.90;;;;;;5012475;28;19916;-67
2023/01/03 07:58:46;;;;;;;;;;;23.90;99.90;;;;;;5011619;28;19960;-70
2023/01/03 08:01:14;;;;;;;;;;;23.90;99.90;;;;;;5011445;28;20008;-72
2023/01/03 08:03:41;;;;;;;;;;;23.80;99.90;;;;;;5012041;28;19909;-71
2023/01/03 08:06:09;;;;;;;;;;;23.80;99.90;;;;;;5011868;28;19914;-78
2023/01/03 08:08:36;;;;;;;;;;;23.90;99.90;;;;;;5011598;28;20287;-68
2023/01/03 08:13:48;;;;;;;;;;;23.80;99.90;;;;;;5013878;28;19951;-71
2023/01/03 08:16:16;;;;;;;;;;;23.80;99.90;;;;;;5013826;28;19913;-76
2023/01/03 08:18:43;;;;;;;;;;;23.70;99.90;;;;;;5013663;28;19917;-79
2023/01/03 08:21:11;;;;;;;;;;;23.70;99.90;;;;;;5013028;28;20387;-72
2023/01/03 08:23:38;;;;;;;;;;;23.70;99.90;;;;;;5013434;28;19913;-75
2023/01/03 08:26:07;;;;;;;;;;;23.70;99.90;;;;;;5013519;28;20338;-77
2023/01/03 08:28:34;;;;;;;;;;;23.70;99.90;;;;;;5013446;28;19910;-68
2023/01/03 08:31:11;;;;;;;;;;;23.70;99.90;;;;;;5013143;28;19909;-67
2023/01/03 08:33:42;;;;;;;;;;;23.60;99.90;;;;;;5013505;28;19988;-68
2023/01/03 08:36:09;;;;;;;;;;;23.60;99.90;;;;;;5013230;28;19945;-68
2023/01/03 08:38:43;;;;;;;;;;;23.60;99.90;;;;;;5013370;28;20372;-73
2023/01/03 08:41:11;;;;;;;;;;;23.60;99.90;;;;;;5012963;28;19909;-70
2023/01/03 08:43:43;;;;;;;;;;;23.60;99.90;;;;;;5013033;28;19909;-70
2023/01/03 08:46:11;;;;;;;;;;;23.50;99.90;;;;;;5013226;28;19952;-69
2023/01/03 08:48:38;;;;;;;;;;;23.50;99.90;;;;;;5013199;28;19959;-69
2023/01/03 08:51:05;;;;;;;;;;;23.50;99.90;;;;;;5012495;28;20352;-69
2023/01/03 08:53:32;;;;;;;;;;;23.50;99.90;;;;;;5012670;28;19925;-74
2023/01/03 08:55:59;;;;;;;;;;;23.50;99.90;;;;;;5012792;28;19937;-67
2023/01/03 08:58:25;;;;;;;;;;;23.50;99.90;;;;;;5012863;28;19916;-67
2023/01/03 09:00:52;;;;;;;;;;;23.50;99.90;;;;;;5012066;28;19909;-67
2023/01/03 09:03:19;;;;;;;;;;;23.50;99.90;;;;;;5012509;28;20368;-71
2023/01/03 09:05:45;;;;;;;;;;;23.60;99.90;;;;;;5012701;28;19916;-68
2023/01/03 09:08:12;;;;;;;;;;;23.50;99.90;;;;;;5012598;28;20348;-67
2023/01/03 09:10:39;;;;;;;;;;;23.50;99.90;;;;;;5012479;28;19931;-67
2023/01/03 09:13:05;;;;;;;;;;;23.50;99.90;;;;;;5012283;28;19922;-67
2023/01/03 09:15:32;;;;;;;;;;;23.50;99.90;;;;;;5012244;28;19936;-68
2023/01/03 09:17:59;;;;;;;;;;;23.50;99.90;;;;;;5012746;28;19914;-70
2023/01/03 09:20:25;;;;;;;;;;;23.50;99.90;;;;;;5010505;28;20414;-68
2023/01/03 09:22:52;;;;;;;;;;;23.50;99.90;;;;;;5010619;28;20372;-70
2023/01/03 09:25:18;;;;;;;;;;;23.50;99.90;;;;;;5010417;28;19914;-70
2023/01/03 09:27:46;;;;;;;;;;;23.50;99.90;;;;;;5010602;28;19935;-74
2023/01/03 09:30:13;;;;;;;;;;;23.50;99.90;;;;;;5010181;28;19914;-68
2023/01/03 09:32:40;;;;;;;;;;;23.40;99.90;;;;;;5010541;28;19921;-70
2023/01/03 09:35:07;;;;;;;;;;;23.40;99.90;;;;;;5010259;28;19964;-77
2023/01/03 09:37:34;;;;;;;;;;;23.40;99.90;;;;;;5009978;28;19956;-71
2023/01/03 09:40:01;;;;;;;;;;;23.50;99.90;;;;;;5010299;28;19914;-73
2023/01/03 09:45:16;;;;;;;;;;;23.50;99.90;;;;;;5005615;28;19917;-68
2023/01/03 09:47:44;;;;;;;;;;;23.50;99.90;;;;;;4981713;28;19950;-69
2023/01/03 09:50:20;;;;;;;;;;;23.60;99.90;;;;;;4984381;28;19944;-70
2023/01/03 10:04:08;;;;;;;;;;;23.60;99.90;;;;;;4984206;28;19936;-70
2023/01/03 10:06:44;;;;;;;;;;;23.60;99.90;;;;;;4984454;28;19913;-75
2023/01/03 10:09:14;;;;;;;;;;;23.60;99.90;;;;;;4984308;28;19918;-73
2023/01/03 10:11:52;;;;;;;;;;;23.60;99.90;;;;;;4985641;28;19914;-77
2023/01/03 10:14:19;;;;;;;;;;;23.60;99.90;;;;;;4988058;28;19921;-68
2023/01/03 10:16:55;;;;;;;;;;;23.60;99.90;;;;;;4988137;28;20017;-69
2023/01/03 10:19:21;;;;;;;;;;;23.60;99.90;;;;;;4987749;28;20363;-71
2023/01/03 10:21:56;;;;;;;;;;;23.50;99.90;;;;;;4987880;28;19921;-74
2023/01/03 10:24:24;;;;;;;;;;;23.30;99.90;;;;;;4988373;28;20063;-69
2023/01/03 10:26:54;;;;;;;;;;;23.10;99.90;;;;;;4987467;28;19918;-73
2023/01/03 10:29:21;;;;;;;;;;;22.80;99.90;;;;;;5003528;28;20367;-79
2023/01/03 10:32:08;;;;;;;;;;;22.60;99.90;;;;;;5005673;28;19914;-70
2023/01/03 10:34:37;;;;;;;;;;;22.30;99.90;;;;;;5008162;28;19925;-75
2023/01/03 10:37:14;;;;;;;;;;;22.00;99.90;;;;;;5013828;28;20374;-71
2023/01/03 10:39:41;;;;;;;;;;;21.90;99.90;;;;;;5013660;28;20697;-78
2023/01/03 10:42:08;;;;;;;;;;;21.80;99.90;;;;;;5013671;28;20292;-82
2023/01/03 10:44:34;;;;;;;;;;;21.80;99.90;;;;;;5013671;28;19909;-78
2023/01/03 10:47:15;;;;;;;;;;;21.70;99.90;;;;;;5013584;28;19918;-83
2023/01/03 10:49:44;;;;;;;;;;;21.60;99.90;;;;;;5013530;28;19928;-73
2023/01/03 10:52:17;;;;;;;;;;;21.60;99.90;;;;;;5013158;28;20335;-81
2023/01/03 10:54:45;;;;;;;;;;;21.40;99.90;;;;;;5013686;28;19920;-83
2023/01/03 10:57:29;;;;;;;;;;;21.30;99.90;;;;;;5013611;28;20305;-82
2023/01/03 10:59:56;;;;;;;;;;;21.20;99.90;;;;;;5017533;28;19910;-77
2023/01/03 11:02:23;;;;;;;;;;;21.20;99.90;;;;;;5015054;28;19910;-83
2023/01/03 11:05:04;;;;;;;;;;;21.20;99.90;;;;;;5015734;28;19920;-80
2023/01/03 11:07:30;;;;;;;;;;;21.10;99.90;;;;;;5015342;28;19914;-80
2023/01/03 11:09:57;;;;;;;;;;;21.10;99.90;;;;;;5015092;28;19952;-78
2023/01/03 11:12:37;;;;;;;;;;;21.20;99.90;;;;;;5015194;28;19917;-81
2023/01/03 11:15:14;;;;;;;;;;;21.20;99.90;;;;;;5015309;28;19909;-79
2023/01/03 11:17:59;;;;;;;;;;;21.20;99.90;;;;;;5015487;28;19937;-83
2023/01/03 11:20:45;;;;;;;;;;;21.20;99.90;;;;;;5014646;28;19910;-79
2023/01/03 11:23:18;;;;;;;;;;;21.30;99.90;;;;;;5006520;28;19914;-82
2023/01/03 11:25:55;;;;;;;;;;;21.20;99.90;;;;;;5015046;28;19909;-81
2023/01/03 11:28:38;;;;;;;;;;;21.30;99.90;;;;;;5015014;28;19910;-82
2023/01/03 11:31:13;;;;;;;;;;;21.30;99.90;;;;;;5014594;28;19993;-81
2023/01/03 11:33:43;;;;;;;;;;;21.30;99.90;;;;;;5014628;28;20052;-82
2023/01/03 11:36:21;;;;;;;;;;;21.40;99.90;;;;;;5014526;28;19933;-79
2023/01/03 11:39:08;;;;;;;;;;;21.40;99.90;;;;;;5014854;28;19979;-81
2023/01/03 11:41:41;;;;;;;;;;;21.40;99.90;;;;;;5014281;28;19916;-80
2023/01/03 11:44:25;;;;;;;;;;;21.40;99.90;;;;;;5014700;28;19940;-82
2023/01/03 11:47:07;;;;;;;;;;;21.50;99.90;;;;;;5014673;28;19917;-80
2023/01/03 11:49:37;;;;;;;;;;;21.50;99.90;;;;;;5014717;28;19913;-80
2023/01/03 11:52:18;;;;;;;;;;;21.50;99.90;;;;;;5014798;28;20475;-83
2023/01/03 11:55:07;;;;;;;;;;;21.50;99.90;;;;;;5014746;28;19909;-83
2023/01/03 11:57:54;;;;;;;;;;;21.50;99.90;;;;;;4995210;28;19913;-82
2023/01/03 12:00:39;;;;;;;;;;;21.60;99.90;;;;;;5013979;28;20299;-82
2023/01/03 12:03:11;;;;;;;;;;;21.70;99.90;;;;;;5014533;28;19920;-80
2023/01/03 12:05:41;;;;;;;;;;;21.80;99.90;;;;;;5014232;28;19952;-81
2023/01/03 12:08:17;;;;;;;;;;;21.80;99.90;;;;;;5014107;28;19913;-82
2023/01/03 12:11:01;;;;;;;;;;;21.90;99.90;;;;;;5014068;28;19976;-82
2023/01/03 12:13:34;;;;;;;;;;;21.90;99.90;;;;;;5013914;28;19918;-81
2023/01/03 12:16:03;;;;;;;;;;;21.90;99.90;;;;;;5014192;28;19914;-81
2023/01/03 12:18:53;;;;;;;;;;;21.90;99.90;;;;;;5014430;28;20418;-82
2023/01/03 12:21:33;;;;;;;;;;;21.90;99.90;;;;;;5013442;28;20339;-82
2023/01/03 12:24:11;;;;;;;;;;;21.90;99.90;;;;;;5014052;28;19909;-74
2023/01/03 12:26:41;;;;;;;;;;;22.00;99.90;;;;;;5013997;28;19952;-81
2023/01/03 12:29:22;;;;;;;;;;;22.00;99.90;;;;;;5012542;28;19920;-78
2023/01/03 12:31:49;;;;;;;;;;;22.10;99.90;;;;;;5013767;28;19910;-82
2023/01/03 12:34:45;;;;;;;;;;;22.00;99.90;;;;;;5013351;28;19920;-78
2023/01/03 12:37:31;;;;;;;;;;;22.00;99.90;;;;;;4977690;28;19921;-81
2023/01/03 12:40:21;;;;;;;;;;;22.00;99.90;;;;;;5013771;28;19914;-74
2023/01/03 12:42:54;;;;;;;;;;;22.00;99.90;;;;;;5008424;28;19997;-80
2023/01/03 12:45:20;;;;;;;;;;;22.10;99.90;;;;;;5013606;28;19917;-78
2023/01/03 12:48:01;;;;;;;;;;;22.00;99.90;;;;;;5013796;28;20422;-79
2023/01/03 12:50:30;;;;;;;;;;;22.00;99.90;;;;;;5014065;28;19909;-81
2023/01/03 12:52:59;;;;;;;;;;;22.00;99.90;;;;;;5013731;28;19924;-81
2023/01/03 12:55:31;;;;;;;;;;;22.00;99.90;;;;;;5013442;28;19920;-80
2023/01/03 12:58:24;;;;;;;;;;;22.00;99.90;;;;;;5013588;28;19952;-79
2023/01/03 13:00:59;;;;;;;;;;;22.00;99.90;;;;;;5011167;28;20024;-79
2023/01/03 13:03:26;;;;;;;;;;;22.10;99.90;;;;;;5013162;28;19914;-79
2023/01/03 13:05:56;;;;;;;;;;;22.20;99.90;;;;;;5013233;28;19920;-80
2023/01/03 13:08:32;;;;;;;;;;;22.20;99.90;;;;;;5013474;28;19981;-79
2023/01/03 13:11:01;;;;;;;;;;;22.20;99.90;;;;;;5013209;28;19913;-79
2023/01/03 13:13:28;;;;;;;;;;;22.20;99.90;;;;;;5013150;28;19924;-79
2023/01/03 13:15:54;;;;;;;;;;;22.10;99.90;;;;;;5013645;28;19918;-80
2023/01/03 13:18:21;;;;;;;;;;;22.10;99.90;;;;;;5014042;28;19909;-79
2023/01/03 13:20:48;;;;;;;;;;;22.10;99.90;;;;;;5014426;28;20464;-79
2023/01/03 13:23:21;;;;;;;;;;;22.10;99.90;;;;;;5016081;28;19920;-80
2023/01/03 13:26:05;;;;;;;;;;;22.10;99.90;;;;;;5014269;28;19913;-81
2023/01/03 13:28:33;;;;;;;;;;;22.00;99.90;;;;;;5013009;28;19999;-80
2023/01/03 13:31:18;;;;;;;;;;;21.90;99.90;;;;;;5012339;28;19918;-81
2023/01/03 13:33:54;;;;;;;;;;;21.90;99.90;;;;;;5012753;28;20016;-81
2023/01/03 13:36:22;;;;;;;;;;;21.80;99.90;;;;;;5012372;28;19933;-81
2023/01/03 13:38:48;;;;;;;;;;;21.90;99.90;;;;;;5013506;28;19945;-81
2023/01/03 13:41:33;;;;;;;;;;;21.80;99.90;;;;;;5012121;28;20038;-80
2023/01/03 13:44:22;;;;;;;;;;;21.90;99.90;;;;;;5012461;28;19996;-81
2023/01/03 13:46:50;;;;;;;;;;;21.90;99.90;;;;;;5012301;28;19917;-81
2023/01/03 13:49:21;;;;;;;;;;;21.80;99.90;;;;;;5011969;28;20278;-79
2023/01/03 13:51:52;;;;;;;;;;;21.70;99.90;;;;;;5012490;28;20051;-80
2023/01/03 13:54:19;;;;;;;;;;;21.80;99.90;;;;;;5012523;28;19925;-80
2023/01/03 13:56:45;;;;;;;;;;;21.70;99.90;;;;;;5012280;28;19936;-80
2023/01/03 13:59:18;;;;;;;;;;;21.70;99.90;;;;;;5011930;28;19910;-72
2023/01/03 14:01:56;;;;;;;;;;;21.80;99.90;;;;;;5012436;28;19913;-80
2023/01/03 14:04:32;;;;;;;;;;;21.80;99.90;;;;;;5012682;28;20292;-80
2023/01/03 14:07:13;;;;;;;;;;;21.80;99.90;;;;;;5012921;28;19965;-80
2023/01/03 14:09:40;;;;;;;;;;;21.80;99.90;;;;;;5010610;28;19913;-81
2023/01/03 14:12:10;;;;;;;;;;;21.90;99.90;;;;;;5012341;28;19932;-81
2023/01/03 14:14:39;;;;;;;;;;;21.90;99.90;;;;;;5012346;28;19913;-80
2023/01/03 14:17:14;;;;;;;;;;;21.80;99.90;;;;;;5012334;28;19910;-81
2023/01/03 14:19:51;;;;;;;;;;;21.90;99.90;;;;;;5011867;28;19921;-80
2023/01/03 14:22:25;;;;;;;;;;;21.90;99.90;;;;;;5012285;28;19963;-81
2023/01/03 14:24:56;;;;;;;;;;;22.00;99.90;;;;;;5011760;28;19918;-81
2023/01/03 14:27:51;;;;;;;;;;;22.10;99.90;;;;;;5011945;28;19909;-74
2023/01/03 14:30:19;;;;;;;;;;;22.10;99.90;;;;;;5009875;28;19916;-76
2023/01/03 14:32:46;;;;;;;;;;;22.10;99.90;;;;;;5011891;28;20430;-78
2023/01/03 14:35:31;;;;;;;;;;;22.20;99.90;;;;;;5011535;28;19927;-71
2023/01/03 14:37:58;;;;;;;;;;;22.20;99.90;;;;;;5012006;28;19917;-80
2023/01/03 14:40:25;;;;;;;;;;;22.20;99.90;;;;;;5011945;28;19917;-70
2023/01/03 14:42:51;;;;;;;;;;;22.20;99.90;;;;;;5012033;28;20052;-68
2023/01/03 14:45:19;;;;;;;;;;;22.20;99.90;;;;;;5011905;28;19952;-72
2023/01/03 14:47:46;;;;;;;;;;;22.20;99.90;;;;;;5011857;28;19913;-69
2023/01/03 14:50:14;;;;;;;;;;;22.20;99.90;;;;;;5010698;28;20397;-70
2023/01/03 14:52:42;;;;;;;;;;;22.30;99.90;;;;;;5011988;28;19967;-70
2023/01/03 14:55:18;;;;;;;;;;;22.30;99.90;;;;;;5012164;28;19913;-71
2023/01/03 14:57:46;;;;;;;;;;;22.30;99.90;;;;;;5012224;28;19909;-70
2023/01/03 15:00:30;;;;;;;;;;;22.30;99.90;;;;;;5015448;28;20272;-69
2023/01/03 15:02:57;;;;;;;;;;;22.30;99.90;;;;;;5015615;28;19914;-70
2023/01/03 15:05:27;;;;;;;;;;;22.30;99.90;;;;;;5015435;28;19916;-71
2023/01/03 15:07:54;;;;;;;;;;;22.30;99.90;;;;;;5015254;28;20389;-71
2023/01/03 15:10:30;;;;;;;;;;;22.30;99.90;;;;;;5014947;28;20036;-68
2023/01/03 15:12:58;;;;;;;;;;;22.30;99.90;;;;;;5015213;28;19917;-69
2023/01/03 15:15:28;;;;;;;;;;;22.30;99.90;;;;;;5015018;28;19952;-70
2023/01/03 15:17:58;;;;;;;;;;;22.40;99.90;;;;;;5014918;28;20292;-70
2023/01/03 15:20:51;;;;;;;;;;;22.30;99.90;;;;;;5014412;28;19992;-68
2023/01/03 15:23:36;;;;;;;;;;;22.30;99.90;;;;;;5012661;28;20296;-68
2023/01/03 15:26:03;;;;;;;;;;;22.30;99.90;;;;;;5015148;28;20339;-69
2023/01/03 15:28:37;;;;;;;;;;;22.30;99.90;;;;;;5014901;28;20004;-68
2023/01/03 15:31:21;;;;;;;;;;;22.30;99.90;;;;;;5014572;28;19919;-73
2023/01/03 15:33:58;;;;;;;;;;;22.40;99.90;;;;;;5014681;28;20291;-68
2023/01/03 15:36:26;;;;;;;;;;;22.40;99.90;;;;;;5014701;28;19922;-69
2023/01/03 15:38:52;;;;;;;;;;;22.40;99.90;;;;;;5014717;28;19920;-77
2023/01/03 15:43:18;;;;;;;;;;;22.40;99.90;;;;;;5014438;28;19963;-68